createdAt,value
2024-01-24T00:00:39.289Z,663.00
2024-01-24T00:01:39.210Z,664.00
2024-01-24T00:02:39.117Z,664.00
2024-01-24T00:03:39.133Z,662.00
2024-01-24T00:04:39.055Z,662.00
2024-01-24T00:05:39.026Z,660.00
2024-01-24T00:06:39.098Z,661.00
2024-01-24T00:07:38.982Z,662.00
2024-01-24T00:08:38.933Z,661.00
2024-01-24T00:09:38.934Z,659.00
2024-01-24T00:10:38.905Z,660.00
2024-01-24T00:11:38.999Z,658.00
2024-01-24T00:12:38.970Z,657.00
2024-01-24T00:13:38.962Z,658.00
2024-01-24T00:14:38.973Z,658.00
2024-01-24T00:15:39.029Z,658.00
2024-01-24T00:16:39.009Z,660.00
2024-01-24T00:17:39.070Z,657.00
2024-01-24T00:18:39.098Z,656.00
2024-01-24T00:19:39.182Z,655.00
2024-01-24T00:20:39.087Z,654.00
2024-01-24T00:21:39.121Z,656.00
2024-01-24T00:22:39.121Z,652.00
2024-01-24T00:23:39.161Z,652.00
2024-01-24T00:24:39.173Z,654.00
2024-01-24T00:25:39.200Z,652.00
2024-01-24T00:26:39.211Z,654.00
2024-01-24T00:27:39.257Z,651.00
2024-01-24T00:28:39.244Z,649.00
2024-01-24T00:29:39.262Z,648.00
2024-01-24T00:30:39.345Z,649.00
2024-01-24T00:31:39.305Z,651.00
2024-01-24T00:32:39.381Z,647.00
2024-01-24T00:33:39.423Z,647.00
2024-01-24T00:34:39.403Z,644.00
2024-01-24T00:35:39.412Z,653.00
2024-01-24T00:36:39.455Z,653.00
2024-01-24T00:37:39.430Z,652.00
2024-01-24T00:38:39.464Z,656.00
2024-01-24T00:39:39.530Z,650.00
2024-01-24T00:40:39.527Z,652.00
2024-01-24T00:41:39.535Z,650.00
2024-01-24T00:42:39.577Z,648.00
2024-01-24T00:43:39.580Z,651.00
2024-01-24T00:44:39.609Z,652.00
2024-01-24T00:45:39.641Z,649.00
2024-01-24T00:46:39.641Z,647.00
2024-01-24T00:47:39.652Z,645.00
2024-01-24T00:48:39.800Z,649.00
2024-01-24T00:49:39.756Z,649.00
2024-01-24T00:50:39.708Z,650.00
2024-01-24T00:51:39.786Z,651.00
2024-01-24T00:52:39.749Z,650.00
2024-01-24T00:53:39.774Z,651.00
2024-01-24T00:54:39.782Z,647.00
2024-01-24T00:55:39.796Z,647.00
2024-01-24T00:56:39.810Z,645.00
2024-01-24T00:57:39.872Z,643.00
2024-01-24T00:58:39.845Z,643.00
2024-01-24T00:59:39.846Z,645.00
2024-01-24T01:00:39.948Z,649.00
2024-01-24T01:01:39.894Z,651.00
2024-01-24T01:02:39.906Z,650.00
2024-01-24T01:03:40.006Z,651.00
2024-01-24T01:04:39.926Z,649.00
2024-01-24T01:05:40.029Z,647.00
2024-01-24T01:06:40.005Z,650.00
2024-01-24T01:07:39.998Z,650.00
2024-01-24T01:08:40.025Z,650.00
2024-01-24T01:09:40.012Z,651.00
2024-01-24T01:10:40.037Z,654.00
2024-01-24T01:11:40.061Z,652.00
2024-01-24T01:12:40.072Z,652.00
2024-01-24T01:13:40.000Z,652.00
2024-01-24T01:14:39.967Z,649.00
2024-01-24T01:15:40.004Z,650.00
2024-01-24T01:16:39.937Z,648.00
2024-01-24T01:17:39.914Z,652.00
2024-01-24T01:18:39.901Z,652.00
2024-01-24T01:19:39.853Z,652.00
2024-01-24T01:20:39.772Z,654.00
2024-01-24T01:21:39.774Z,651.00
2024-01-24T01:22:39.725Z,648.00
2024-01-24T01:23:39.675Z,648.00
2024-01-24T01:24:39.676Z,651.00
2024-01-24T01:25:39.594Z,647.00
2024-01-24T01:26:39.579Z,647.00
2024-01-24T01:27:39.566Z,644.00
2024-01-24T01:28:39.542Z,645.00
2024-01-24T01:29:39.548Z,640.00
2024-01-24T01:30:39.572Z,646.00
2024-01-24T01:31:39.607Z,647.00
2024-01-24T01:32:39.631Z,648.00
2024-01-24T01:33:39.761Z,649.00
2024-01-24T01:34:39.868Z,642.00
2024-01-24T01:35:39.724Z,643.00
2024-01-24T01:36:39.794Z,644.00
2024-01-24T01:37:39.738Z,638.00
2024-01-24T01:38:39.704Z,638.00
2024-01-24T01:39:39.710Z,638.00
2024-01-24T01:40:39.632Z,639.00
2024-01-24T01:41:39.625Z,638.00
2024-01-24T01:42:39.607Z,642.00
2024-01-24T01:43:39.578Z,641.00
2024-01-24T01:44:39.530Z,644.00
2024-01-24T01:45:39.545Z,644.00
2024-01-24T01:46:39.472Z,641.00
2024-01-24T01:47:39.462Z,644.00
2024-01-24T01:48:39.587Z,644.00
2024-01-24T01:49:39.516Z,646.00
2024-01-24T01:50:39.351Z,647.00
2024-01-24T01:51:39.364Z,646.00
2024-01-24T01:52:39.287Z,645.00
2024-01-24T01:53:39.315Z,645.00
2024-01-24T01:54:39.257Z,648.00
2024-01-24T01:55:39.209Z,648.00
2024-01-24T01:56:39.183Z,648.00
2024-01-24T01:57:39.212Z,648.00
2024-01-24T01:58:39.111Z,646.00
2024-01-24T01:59:39.083Z,642.00
2024-01-24T02:00:39.074Z,641.00
2024-01-24T02:01:39.051Z,644.00
2024-01-24T02:02:39.063Z,647.00
2024-01-24T02:03:39.185Z,646.00
2024-01-24T02:04:38.954Z,648.00
2024-01-24T02:05:39.480Z,644.00
2024-01-24T02:06:39.113Z,642.00
2024-01-24T02:07:39.089Z,641.00
2024-01-24T02:08:38.992Z,640.00
2024-01-24T02:09:39.006Z,644.00
2024-01-24T02:10:39.004Z,644.00
2024-01-24T02:11:39.027Z,645.00
2024-01-24T02:12:39.113Z,643.00
2024-01-24T02:13:39.110Z,649.00
2024-01-24T02:14:39.080Z,647.00
2024-01-24T02:15:39.117Z,650.00
2024-01-24T02:16:39.122Z,647.00
2024-01-24T02:17:39.168Z,643.00
2024-01-24T02:18:39.196Z,645.00
2024-01-24T02:19:39.220Z,643.00
2024-01-24T02:20:39.198Z,644.00
2024-01-24T02:21:39.247Z,646.00
2024-01-24T02:22:39.243Z,645.00
2024-01-24T02:23:39.248Z,647.00
2024-01-24T02:24:39.356Z,649.00
2024-01-24T02:25:39.300Z,647.00
2024-01-24T02:26:39.324Z,647.00
2024-01-24T02:27:39.433Z,649.00
2024-01-24T02:28:39.369Z,647.00
2024-01-24T02:29:39.388Z,650.00
2024-01-24T02:30:39.431Z,650.00
2024-01-24T02:31:39.331Z,648.00
2024-01-24T02:32:39.386Z,647.00
2024-01-24T02:33:39.386Z,650.00
2024-01-24T02:34:39.493Z,651.00
2024-01-24T02:35:39.250Z,650.00
2024-01-24T02:36:39.259Z,648.00
2024-01-24T02:37:39.199Z,645.00
2024-01-24T02:38:39.192Z,646.00
2024-01-24T02:39:39.201Z,646.00
2024-01-24T02:40:39.121Z,649.00
2024-01-24T02:41:39.085Z,646.00
2024-01-24T02:42:39.117Z,646.00
2024-01-24T02:43:39.018Z,646.00
2024-01-24T02:44:39.006Z,648.00
2024-01-24T02:45:39.033Z,648.00
2024-01-24T02:46:38.947Z,649.00
2024-01-24T02:47:38.944Z,650.00
2024-01-24T02:48:38.932Z,649.00
2024-01-24T02:49:38.999Z,646.00
2024-01-24T02:50:38.833Z,646.00
2024-01-24T02:51:38.810Z,646.00
2024-01-24T02:52:38.792Z,646.00
2024-01-24T02:53:38.746Z,646.00
2024-01-24T02:54:38.809Z,648.00
2024-01-24T02:55:38.696Z,651.00
2024-01-24T02:56:38.714Z,649.00
2024-01-24T02:57:38.682Z,646.00
2024-01-24T02:58:38.645Z,643.00
2024-01-24T02:59:38.595Z,641.00
2024-01-24T03:00:38.672Z,645.00
2024-01-24T03:01:38.614Z,642.00
2024-01-24T03:02:38.589Z,644.00
2024-01-24T03:03:38.665Z,645.00
2024-01-24T03:04:38.598Z,645.00
2024-01-24T03:05:38.585Z,645.00
2024-01-24T03:06:38.630Z,646.00
2024-01-24T03:07:38.592Z,648.00
2024-01-24T03:08:38.513Z,645.00
2024-01-24T03:09:38.497Z,646.00
2024-01-24T03:10:38.448Z,646.00
2024-01-24T03:11:38.428Z,645.00
2024-01-24T03:12:38.436Z,651.00
2024-01-24T03:13:38.381Z,647.00
2024-01-24T03:14:38.346Z,649.00
2024-01-24T03:15:38.353Z,645.00
2024-01-24T03:16:38.293Z,642.00
2024-01-24T03:17:38.316Z,641.00
2024-01-24T03:18:38.288Z,646.00
2024-01-24T03:19:38.322Z,649.00
2024-01-24T03:20:38.213Z,646.00
2024-01-24T03:21:38.240Z,649.00
2024-01-24T03:22:38.249Z,651.00
2024-01-24T03:23:38.254Z,648.00
2024-01-24T03:24:38.276Z,648.00
2024-01-24T03:25:38.224Z,649.00
2024-01-24T03:26:38.182Z,649.00
2024-01-24T03:27:38.206Z,649.00
2024-01-24T03:28:38.138Z,650.00
2024-01-24T03:29:38.116Z,648.00
2024-01-24T03:30:38.133Z,648.00
2024-01-24T03:31:38.074Z,645.00
2024-01-24T03:32:38.098Z,644.00
2024-01-24T03:33:38.123Z,646.00
2024-01-24T03:34:38.110Z,647.00
2024-01-24T03:35:37.974Z,647.00
2024-01-24T03:36:38.063Z,648.00
2024-01-24T03:37:38.107Z,645.00
2024-01-24T03:38:38.040Z,650.00
2024-01-24T03:39:38.034Z,650.00
2024-01-24T03:40:38.016Z,651.00
2024-01-24T03:41:38.024Z,648.00
2024-01-24T03:42:37.993Z,647.00
2024-01-24T03:43:37.950Z,646.00
2024-01-24T03:44:37.883Z,647.00
2024-01-24T03:45:37.890Z,647.00
2024-01-24T03:46:37.865Z,648.00
2024-01-24T03:47:38.019Z,647.00
2024-01-24T03:48:37.980Z,648.00
2024-01-24T03:49:37.898Z,650.00
2024-01-24T03:50:37.833Z,650.00
2024-01-24T03:51:37.941Z,650.00
2024-01-24T03:52:37.829Z,649.00
2024-01-24T03:53:37.799Z,644.00
2024-01-24T03:54:37.798Z,645.00
2024-01-24T03:55:37.704Z,646.00
2024-01-24T03:56:37.665Z,649.00
2024-01-24T03:57:37.690Z,647.00
2024-01-24T03:58:37.619Z,654.00
2024-01-24T03:59:37.622Z,649.00
2024-01-24T04:00:37.638Z,650.00
2024-01-24T04:01:37.556Z,652.00
2024-01-24T04:02:37.549Z,648.00
2024-01-24T04:03:37.631Z,648.00
2024-01-24T04:04:37.612Z,649.00
2024-01-24T04:05:37.616Z,650.00
2024-01-24T04:06:37.700Z,649.00
2024-01-24T04:07:37.662Z,650.00
2024-01-24T04:08:37.690Z,651.00
2024-01-24T04:09:37.792Z,651.00
2024-01-24T04:10:37.729Z,648.00
2024-01-24T04:11:37.776Z,652.00
2024-01-24T04:12:37.859Z,648.00
2024-01-24T04:13:45.005Z,600.00
2024-01-24T04:14:44.997Z,600.00
2024-01-24T04:15:45.618Z,600.00
2024-01-24T04:16:44.993Z,600.00
2024-01-24T04:17:45.025Z,600.00
2024-01-24T04:18:45.074Z,600.00
2024-01-24T04:19:45.111Z,600.00
2024-01-24T04:20:45.000Z,600.00
2024-01-24T04:21:45.069Z,600.00
2024-01-24T04:22:44.992Z,602.00
2024-01-24T04:23:44.992Z,604.00
2024-01-24T04:24:45.000Z,600.00
2024-01-24T04:25:44.991Z,603.00
2024-01-24T04:26:44.974Z,603.00
2024-01-24T04:27:45.006Z,603.00
2024-01-24T04:28:44.990Z,601.00
2024-01-24T04:29:44.966Z,602.00
2024-01-24T04:30:45.047Z,602.00
2024-01-24T04:31:52.209Z,600.00
2024-01-24T04:32:52.288Z,600.00
2024-01-24T04:33:52.336Z,600.00
2024-01-24T04:34:53.545Z,600.00
2024-01-24T04:35:52.242Z,600.00
2024-01-24T04:36:52.284Z,600.00
2024-01-24T04:37:52.250Z,600.00
2024-01-24T04:38:52.264Z,600.00
2024-01-24T04:39:52.368Z,600.00
2024-01-24T04:40:52.287Z,600.00
2024-01-24T04:41:56.320Z,600.00
2024-01-24T04:42:53.345Z,600.00
2024-01-24T04:43:52.326Z,600.00
2024-01-24T04:44:52.330Z,600.00
2024-01-24T04:45:52.382Z,600.00
2024-01-24T04:46:52.376Z,600.00
2024-01-24T04:47:52.421Z,600.00
2024-01-24T04:48:52.453Z,602.00
2024-01-24T04:49:52.451Z,603.00
2024-01-24T04:50:52.409Z,603.00
2024-01-24T04:51:52.540Z,603.00
2024-01-24T04:52:52.423Z,603.00
2024-01-24T04:53:52.431Z,603.00
2024-01-24T04:54:52.628Z,605.00
2024-01-24T04:55:52.456Z,600.00
2024-01-24T04:56:52.486Z,605.00
2024-01-24T04:57:52.489Z,605.00
2024-01-24T04:58:52.523Z,603.00
2024-01-24T04:59:55.993Z,604.00
2024-01-24T05:00:52.627Z,604.00
2024-01-24T05:01:52.524Z,604.00
2024-01-24T05:02:52.532Z,604.00
2024-01-24T05:03:52.651Z,605.00
2024-01-24T05:04:52.596Z,604.00
2024-01-24T05:05:58.559Z,604.00
2024-01-24T05:06:53.651Z,604.00
2024-01-24T05:07:52.631Z,605.00
2024-01-24T05:08:52.645Z,606.00
2024-01-24T05:09:52.704Z,606.00
2024-01-24T05:10:52.662Z,607.00
2024-01-24T05:11:52.666Z,608.00
2024-01-24T05:12:52.739Z,607.00
2024-01-24T05:13:52.693Z,609.00
2024-01-24T05:14:52.708Z,611.00
2024-01-24T05:15:52.779Z,612.00
2024-01-24T05:16:52.732Z,605.00
2024-01-24T05:17:52.793Z,610.00
2024-01-24T05:18:52.864Z,610.00
2024-01-24T05:19:52.736Z,608.00
2024-01-24T05:20:52.752Z,607.00
2024-01-24T05:21:52.928Z,606.00
2024-01-24T05:22:52.766Z,606.00
2024-01-24T05:23:52.768Z,609.00
2024-01-24T05:24:52.801Z,610.00
2024-01-24T05:25:52.842Z,610.00
2024-01-24T05:26:52.871Z,611.00
2024-01-24T05:27:53.014Z,610.00
2024-01-24T05:28:52.958Z,612.00
2024-01-24T05:29:53.016Z,609.00
2024-01-24T05:30:53.089Z,607.00
2024-01-24T05:31:53.111Z,607.00
2024-01-24T05:32:53.159Z,605.00
2024-01-24T05:33:53.210Z,604.00
2024-01-24T05:34:53.306Z,610.00
2024-01-24T05:35:53.277Z,609.00
2024-01-24T05:36:53.425Z,608.00
2024-01-24T05:37:53.381Z,604.00
2024-01-24T05:38:53.393Z,610.00
2024-01-24T05:39:53.595Z,608.00
2024-01-24T05:40:53.502Z,608.00
2024-01-24T05:41:53.551Z,608.00
2024-01-24T05:42:53.956Z,606.00
2024-01-24T05:43:53.667Z,611.00
2024-01-24T05:44:53.685Z,609.00
2024-01-24T05:45:53.795Z,610.00
2024-01-24T05:46:53.818Z,608.00
2024-01-24T05:47:53.958Z,609.00
2024-01-24T05:48:54.020Z,608.00
2024-01-24T05:49:53.931Z,608.00
2024-01-24T05:50:53.954Z,607.00
2024-01-24T05:51:54.038Z,608.00
2024-01-24T05:52:54.040Z,606.00
2024-01-24T05:53:54.078Z,609.00
2024-01-24T05:54:54.382Z,609.00
2024-01-24T05:55:54.166Z,609.00
2024-01-24T05:56:54.220Z,609.00
2024-01-24T05:57:54.399Z,611.00
2024-01-24T05:58:54.317Z,612.00
2024-01-24T05:59:54.409Z,610.00
2024-01-24T06:00:54.512Z,608.00
2024-01-24T06:01:54.470Z,611.00
2024-01-24T06:02:54.493Z,609.00
2024-01-24T06:03:54.637Z,607.00
2024-01-24T06:04:54.737Z,607.00
2024-01-24T06:05:56.333Z,608.00
2024-01-24T06:06:54.725Z,605.00
2024-01-24T06:07:54.826Z,610.00
2024-01-24T06:08:54.780Z,607.00
2024-01-24T06:09:54.846Z,608.00
2024-01-24T06:10:54.899Z,611.00
2024-01-24T06:11:54.913Z,605.00
2024-01-24T06:12:55.081Z,607.00
2024-01-24T06:13:55.028Z,610.00
2024-01-24T06:14:55.064Z,606.00
2024-01-24T06:15:55.178Z,605.00
2024-01-24T06:16:55.154Z,603.00
2024-01-24T06:17:55.223Z,608.00
2024-01-24T06:18:55.335Z,605.00
2024-01-24T06:19:55.292Z,604.00
2024-01-24T06:20:55.361Z,607.00
2024-01-24T06:21:55.430Z,609.00
2024-01-24T06:22:55.439Z,606.00
2024-01-24T06:23:55.466Z,607.00
2024-01-24T06:24:55.572Z,609.00
2024-01-24T06:25:55.610Z,608.00
2024-01-24T06:26:55.624Z,608.00
2024-01-24T06:27:56.024Z,610.00
2024-01-24T06:28:55.707Z,607.00
2024-01-24T06:30:17.552Z,605.00
2024-01-24T06:30:56.811Z,605.00
2024-01-24T06:31:55.814Z,605.00
2024-01-24T06:32:55.823Z,605.00
2024-01-24T06:33:55.886Z,601.00
2024-01-24T06:34:55.806Z,592.00
2024-01-24T06:35:55.796Z,601.00
2024-01-24T06:36:55.838Z,600.00
2024-01-24T06:37:55.804Z,604.00
2024-01-24T06:38:55.804Z,604.00
2024-01-24T06:39:55.812Z,602.00
2024-01-24T06:40:55.837Z,598.00
2024-01-24T06:41:55.826Z,602.00
2024-01-24T06:42:56.073Z,603.00
2024-01-24T06:43:55.832Z,604.00
2024-01-24T06:44:55.838Z,600.00
2024-01-24T06:45:55.872Z,609.00
2024-01-24T06:46:55.877Z,615.00
2024-01-24T06:47:55.909Z,617.00
2024-01-24T06:48:56.044Z,624.00
2024-01-24T06:49:55.862Z,623.00
2024-01-24T06:50:55.872Z,635.00
2024-01-24T06:51:55.959Z,628.00
2024-01-24T06:52:56.656Z,640.00
2024-01-24T06:53:55.843Z,641.00
2024-01-24T06:54:55.846Z,647.00
2024-01-24T06:55:56.009Z,646.00
2024-01-24T06:56:55.978Z,646.00
2024-01-24T06:57:55.933Z,642.00
2024-01-24T06:58:55.863Z,649.00
2024-01-24T06:59:55.891Z,653.00
2024-01-24T07:00:55.959Z,654.00
2024-01-24T07:01:56.018Z,657.00
2024-01-24T07:02:55.920Z,657.00
2024-01-24T07:03:56.046Z,652.00
2024-01-24T07:04:56.024Z,654.00
2024-01-24T07:05:56.107Z,654.00
2024-01-24T07:06:55.986Z,661.00
2024-01-24T07:07:56.029Z,651.00
2024-01-24T07:08:56.044Z,654.00
2024-01-24T07:09:56.101Z,662.00
2024-01-24T07:10:56.070Z,664.00
2024-01-24T07:11:56.047Z,665.00
2024-01-24T07:12:56.140Z,664.00
2024-01-24T07:13:56.079Z,658.00
2024-01-24T07:14:56.076Z,658.00
2024-01-24T07:15:56.134Z,660.00
2024-01-24T07:16:56.103Z,665.00
2024-01-24T07:17:56.177Z,666.00
2024-01-24T07:18:56.145Z,659.00
2024-01-24T07:19:56.087Z,665.00
2024-01-24T07:20:56.047Z,666.00
2024-01-24T07:21:56.122Z,673.00
2024-01-24T07:22:56.114Z,682.00
2024-01-24T07:23:56.016Z,670.00
2024-01-24T07:24:56.100Z,664.00
2024-01-24T07:25:56.022Z,664.00
2024-01-24T07:26:56.034Z,664.00
2024-01-24T07:27:56.128Z,668.00
2024-01-24T07:28:56.075Z,668.00
2024-01-24T07:29:56.173Z,670.00
2024-01-24T07:30:56.038Z,677.00
2024-01-24T07:31:56.028Z,678.00
2024-01-24T07:32:56.147Z,678.00
2024-01-24T07:33:56.148Z,684.00
2024-01-24T07:34:56.205Z,674.00
2024-01-24T07:35:56.055Z,665.00
2024-01-24T07:36:56.182Z,675.00
2024-01-24T07:37:55.981Z,689.00
2024-01-24T07:38:56.058Z,690.00
2024-01-24T07:39:56.163Z,677.00
2024-01-24T07:40:56.006Z,665.00
2024-01-24T07:41:55.958Z,669.00
2024-01-24T07:42:56.450Z,665.00
2024-01-24T07:43:56.041Z,675.00
2024-01-24T07:44:56.922Z,663.00
2024-01-24T07:45:56.063Z,664.00
2024-01-24T07:46:56.019Z,665.00
2024-01-24T07:47:56.049Z,654.00
2024-01-24T07:48:56.162Z,650.00
2024-01-24T07:49:56.149Z,637.00
2024-01-24T07:50:55.962Z,635.00
2024-01-24T07:51:56.332Z,633.00
2024-01-24T07:52:56.107Z,621.00
2024-01-24T07:53:55.973Z,635.00
2024-01-24T07:54:57.066Z,635.00
2024-01-24T07:56:02.587Z,630.00
2024-01-24T07:56:56.972Z,634.00
2024-01-24T07:57:56.171Z,636.00
2024-01-24T07:58:56.023Z,636.00
2024-01-24T07:59:55.989Z,642.00
2024-01-24T08:00:56.173Z,646.00
2024-01-24T08:01:56.001Z,645.00
2024-01-24T08:02:55.966Z,655.00
2024-01-24T08:03:56.094Z,655.00
2024-01-24T08:04:56.230Z,650.00
2024-01-24T08:05:55.957Z,657.00
2024-01-24T08:06:56.019Z,652.00
2024-01-24T08:07:56.405Z,660.00
2024-01-24T08:08:55.960Z,669.00
2024-01-24T08:09:56.206Z,666.00
2024-01-24T08:10:56.140Z,683.00
2024-01-24T08:11:56.169Z,694.00
2024-01-24T08:12:56.225Z,703.00
2024-01-24T08:13:56.184Z,710.00
2024-01-24T08:14:56.256Z,689.00
2024-01-24T08:15:56.430Z,688.00
2024-01-24T08:16:56.361Z,715.00
2024-01-24T08:17:56.472Z,720.00
2024-01-24T08:18:56.701Z,727.00
2024-01-24T08:19:56.627Z,709.00
2024-01-24T08:20:56.756Z,741.00
2024-01-24T08:21:56.746Z,728.00
2024-01-24T08:22:56.925Z,727.00
2024-01-24T08:23:56.538Z,732.00
2024-01-24T08:24:56.627Z,731.00
2024-01-24T08:25:56.525Z,747.00
2024-01-24T08:26:56.544Z,750.00
2024-01-24T08:27:56.665Z,750.00
2024-01-24T08:28:56.565Z,748.00
2024-01-24T08:29:56.645Z,747.00
2024-01-24T08:30:56.736Z,753.00
2024-01-24T08:31:56.815Z,760.00
2024-01-24T08:32:56.892Z,761.00
2024-01-24T08:33:56.860Z,761.00
2024-01-24T08:34:56.745Z,761.00
2024-01-24T08:35:56.682Z,762.00
2024-01-24T08:36:56.724Z,761.00
2024-01-24T08:37:56.759Z,757.00
2024-01-24T08:38:56.691Z,742.00
2024-01-24T08:39:56.686Z,677.00
2024-01-24T08:40:56.621Z,656.00
2024-01-24T08:41:56.626Z,647.00
2024-01-24T08:42:56.708Z,619.00
2024-01-24T08:43:57.405Z,623.00
2024-01-24T08:44:56.903Z,618.00
2024-01-24T08:45:56.946Z,617.00
2024-01-24T08:46:56.900Z,607.00
2024-01-24T08:47:56.937Z,608.00
2024-01-24T08:48:57.012Z,609.00
2024-01-24T08:49:57.025Z,606.00
2024-01-24T08:50:56.946Z,606.00
2024-01-24T08:51:57.018Z,606.00
2024-01-24T08:52:57.000Z,608.00
2024-01-24T08:53:56.954Z,607.00
2024-01-24T08:54:57.005Z,607.00
2024-01-24T08:55:56.961Z,606.00
2024-01-24T08:56:56.956Z,610.00
2024-01-24T08:57:57.049Z,611.00
2024-01-24T08:58:56.947Z,616.00
2024-01-24T08:59:57.074Z,613.00
2024-01-24T09:00:57.020Z,618.00
2024-01-24T09:01:56.970Z,615.00
2024-01-24T09:02:56.969Z,618.00
2024-01-24T09:03:56.971Z,624.00
2024-01-24T09:04:56.990Z,624.00
2024-01-24T09:05:56.965Z,626.00
2024-01-24T09:06:57.092Z,625.00
2024-01-24T09:07:56.898Z,628.00
2024-01-24T09:08:56.907Z,632.00
2024-01-24T09:09:56.885Z,639.00
2024-01-24T09:10:56.856Z,625.00
2024-01-24T09:11:57.606Z,628.00
2024-01-24T09:12:56.901Z,633.00
2024-01-24T09:13:56.871Z,640.00
2024-01-24T09:14:56.808Z,654.00
2024-01-24T09:15:56.827Z,662.00
2024-01-24T09:16:56.782Z,664.00
2024-01-24T09:17:56.911Z,663.00
2024-01-24T09:18:56.918Z,664.00
2024-01-24T09:19:57.060Z,664.00
2024-01-24T09:20:56.932Z,666.00
2024-01-24T09:21:57.118Z,661.00
2024-01-24T09:22:57.021Z,662.00
2024-01-24T09:23:57.062Z,681.00
2024-01-24T09:24:57.145Z,665.00
2024-01-24T09:25:57.136Z,670.00
2024-01-24T09:26:57.196Z,674.00
2024-01-24T09:27:57.407Z,679.00
2024-01-24T09:28:57.252Z,692.00
2024-01-24T09:29:57.305Z,686.00
2024-01-24T09:30:57.396Z,693.00
2024-01-24T09:31:57.413Z,697.00
2024-01-24T09:32:57.589Z,701.00
2024-01-24T09:33:57.600Z,695.00
2024-01-24T09:34:57.532Z,703.00
2024-01-24T09:35:57.483Z,708.00
2024-01-24T09:36:57.462Z,714.00
2024-01-24T09:37:57.458Z,730.00
2024-01-24T09:38:57.429Z,737.00
2024-01-24T09:39:57.513Z,749.00
2024-01-24T09:40:57.530Z,758.00
2024-01-24T09:41:57.468Z,757.00
2024-01-24T09:42:57.523Z,757.00
2024-01-24T09:43:57.465Z,759.00
2024-01-24T09:44:57.473Z,745.00
2024-01-24T09:45:57.532Z,743.00
2024-01-24T09:46:57.540Z,730.00
2024-01-24T09:47:57.513Z,714.00
2024-01-24T09:48:57.551Z,724.00
2024-01-24T09:49:57.488Z,745.00
2024-01-24T09:50:57.477Z,754.00
2024-01-24T09:51:57.632Z,758.00
2024-01-24T09:52:57.493Z,744.00
2024-01-24T09:53:57.521Z,720.00
2024-01-24T09:54:57.644Z,705.00
2024-01-24T09:55:57.560Z,695.00
2024-01-24T09:56:57.583Z,665.00
2024-01-24T09:57:57.621Z,661.00
2024-01-24T09:58:57.599Z,659.00
2024-01-24T09:59:57.535Z,658.00
2024-01-24T10:00:57.667Z,633.00
2024-01-24T10:01:57.676Z,632.00
2024-01-24T10:02:57.651Z,622.00
2024-01-24T10:03:57.751Z,621.00
2024-01-24T10:04:57.641Z,605.00
2024-01-24T10:05:57.640Z,600.00
2024-01-24T10:06:57.714Z,588.00
2024-01-24T10:07:57.719Z,572.00
2024-01-24T10:08:57.665Z,598.00
2024-01-24T10:10:00.164Z,600.00
2024-01-24T10:10:57.680Z,604.00
2024-01-24T10:11:57.680Z,600.00
2024-01-24T10:12:57.748Z,607.00
2024-01-24T10:13:57.660Z,601.00
2024-01-24T10:14:57.658Z,609.00
2024-01-24T10:15:57.704Z,606.00
2024-01-24T10:16:57.652Z,609.00
2024-01-24T10:17:57.679Z,604.00
2024-01-24T10:18:57.780Z,605.00
2024-01-24T10:19:57.769Z,598.00
2024-01-24T10:20:57.650Z,602.00
2024-01-24T10:21:57.708Z,604.00
2024-01-24T10:22:57.640Z,603.00
2024-01-24T10:23:57.621Z,601.00
2024-01-24T10:24:57.668Z,603.00
2024-01-24T10:25:57.695Z,610.00
2024-01-24T10:26:57.638Z,603.00
2024-01-24T10:27:57.644Z,600.00
2024-01-24T10:28:57.612Z,605.00
2024-01-24T10:29:57.599Z,608.00
2024-01-24T10:30:57.675Z,606.00
2024-01-24T10:31:57.628Z,612.00
2024-01-24T10:32:57.659Z,606.00
2024-01-24T10:33:57.807Z,614.00
2024-01-24T10:34:57.648Z,616.00
2024-01-24T10:35:59.415Z,617.00
2024-01-24T10:36:57.625Z,620.00
2024-01-24T10:37:57.596Z,618.00
2024-01-24T10:38:57.591Z,609.00
2024-01-24T10:39:57.610Z,612.00
2024-01-24T10:40:57.572Z,616.00
2024-01-24T10:41:57.598Z,618.00
2024-01-24T10:42:57.720Z,628.00
2024-01-24T10:43:57.585Z,652.00
2024-01-24T10:44:57.570Z,656.00
2024-01-24T10:45:57.715Z,697.00
2024-01-24T10:46:57.618Z,724.00
2024-01-24T10:47:57.607Z,753.00
2024-01-24T10:48:57.645Z,754.00
2024-01-24T10:49:57.753Z,796.00
2024-01-24T10:50:57.538Z,791.00
2024-01-24T10:51:57.648Z,830.00
2024-01-24T10:52:57.518Z,819.00
2024-01-24T10:53:57.523Z,864.00
2024-01-24T10:54:57.512Z,868.00
2024-01-24T10:55:57.487Z,876.00
2024-01-24T10:56:57.470Z,882.00
2024-01-24T10:57:57.548Z,871.00
2024-01-24T10:58:57.463Z,883.00
2024-01-24T10:59:57.453Z,868.00
2024-01-24T11:00:57.528Z,885.00
2024-01-24T11:01:57.454Z,909.00
2024-01-24T11:02:57.478Z,881.00
2024-01-24T11:03:57.463Z,907.00
2024-01-24T11:04:57.449Z,925.00
2024-01-24T11:05:57.507Z,922.00
2024-01-24T11:06:57.464Z,901.00
2024-01-24T11:07:57.432Z,909.00
2024-01-24T11:08:57.431Z,912.00
2024-01-24T11:09:57.454Z,913.00
2024-01-24T11:10:57.376Z,916.00
2024-01-24T11:11:57.380Z,927.00
2024-01-24T11:12:57.476Z,927.00
2024-01-24T11:13:57.374Z,928.00
2024-01-24T11:14:57.372Z,925.00
2024-01-24T11:15:57.446Z,950.00
2024-01-24T11:16:57.337Z,936.00
2024-01-24T11:17:57.376Z,956.00
2024-01-24T11:18:57.429Z,945.00
2024-01-24T11:19:57.527Z,934.00
2024-01-24T11:20:57.355Z,929.00
2024-01-24T11:21:57.546Z,939.00
2024-01-24T11:22:57.310Z,942.00
2024-01-24T11:23:57.304Z,967.00
2024-01-24T11:24:57.325Z,941.00
2024-01-24T11:25:57.291Z,962.00
2024-01-24T11:26:58.259Z,970.00
2024-01-24T11:27:57.374Z,967.00
2024-01-24T11:28:57.259Z,973.00
2024-01-24T11:29:57.274Z,966.00
2024-01-24T11:30:57.274Z,953.00
2024-01-24T11:31:57.268Z,962.00
2024-01-24T11:32:57.428Z,966.00
2024-01-24T11:33:57.351Z,961.00
2024-01-24T11:34:57.388Z,971.00
2024-01-24T11:35:57.277Z,971.00
2024-01-24T11:36:57.321Z,973.00
2024-01-24T11:38:04.782Z,977.00
2024-01-24T11:38:58.268Z,972.00
2024-01-24T11:39:57.334Z,936.00
2024-01-24T11:40:57.256Z,925.00
2024-01-24T11:41:57.230Z,817.00
2024-01-24T11:42:57.274Z,738.00
2024-01-24T11:43:57.239Z,686.00
2024-01-24T11:44:57.213Z,673.00
2024-01-24T11:45:57.338Z,662.00
2024-01-24T11:46:57.236Z,653.00
2024-01-24T11:47:57.336Z,645.00
2024-01-24T11:48:57.264Z,631.00
2024-01-24T11:49:57.375Z,631.00
2024-01-24T11:50:57.218Z,632.00
2024-01-24T11:51:57.276Z,638.00
2024-01-24T11:52:57.231Z,629.00
2024-01-24T11:53:57.237Z,631.00
2024-01-24T11:54:57.309Z,618.00
2024-01-24T11:55:57.314Z,618.00
2024-01-24T11:56:57.311Z,626.00
2024-01-24T11:57:57.448Z,610.00
2024-01-24T11:58:57.394Z,616.00
2024-01-24T11:59:57.453Z,618.00
2024-01-24T12:00:57.665Z,615.00
2024-01-24T12:01:57.615Z,610.00
2024-01-24T12:02:57.689Z,617.00
2024-01-24T12:03:57.753Z,617.00
2024-01-24T12:04:57.765Z,613.00
2024-01-24T12:05:57.838Z,611.00
2024-01-24T12:06:57.891Z,610.00
2024-01-24T12:07:57.901Z,620.00
2024-01-24T12:08:58.567Z,610.00
2024-01-24T12:09:58.233Z,610.00
2024-01-24T12:10:58.031Z,611.00
2024-01-24T12:11:58.078Z,604.00
2024-01-24T12:12:58.232Z,605.00
2024-01-24T12:13:58.197Z,609.00
2024-01-24T12:14:59.349Z,612.00
2024-01-24T12:15:58.593Z,612.00
2024-01-24T12:16:58.444Z,602.00
2024-01-24T12:17:58.438Z,597.00
2024-01-24T12:18:58.556Z,596.00
2024-01-24T12:19:58.511Z,596.00
2024-01-24T12:21:02.146Z,599.00
2024-01-24T12:21:58.559Z,571.00
2024-01-24T12:22:58.517Z,535.00
2024-01-24T12:23:58.561Z,513.00
2024-01-24T12:24:58.633Z,516.00
2024-01-24T12:25:58.614Z,525.00
2024-01-24T12:27:00.217Z,578.00
2024-01-24T12:27:58.736Z,618.00
2024-01-24T12:28:58.641Z,640.00